createdAt,value
2018-11-20T00:03:13.533Z,3.70
2018-11-20T00:05:48.494Z,3.70
2018-11-20T00:08:23.919Z,3.60
2018-11-20T00:10:51.857Z,3.60
2018-11-20T00:13:26.680Z,3.50
2018-11-20T00:18:41.056Z,3.60
2018-11-20T00:21:19.192Z,3.60
2018-11-20T00:23:49.795Z,3.70
2018-11-20T00:26:24.752Z,3.60
2018-11-20T00:31:21.699Z,3.60
2018-11-20T00:33:47.293Z,3.70
2018-11-20T00:40:41.332Z,3.70
2018-11-20T00:45:43.492Z,3.70
2018-11-20T00:48:18.190Z,3.70
2018-11-20T00:58:03.295Z,3.70
2018-11-20T01:00:40.965Z,3.70
2018-11-20T01:03:15.880Z,3.70
2018-11-20T01:05:50.826Z,3.70
2018-11-20T01:08:26.594Z,3.60
2018-11-20T01:11:08.176Z,3.60
2018-11-20T01:13:48.627Z,3.50
2018-11-20T01:16:23.562Z,3.50
2018-11-20T01:18:59.383Z,3.50
2018-11-20T01:24:11.526Z,3.40
2018-11-20T01:26:46.471Z,3.40
2018-11-20T01:29:03.807Z,3.30
2018-11-20T01:34:24.710Z,3.30
2018-11-20T01:39:14.454Z,3.40
2018-11-20T01:41:33.730Z,3.40
2018-11-20T01:48:40.893Z,3.20
2018-11-20T01:55:49.915Z,3.10
2018-11-20T01:58:05.461Z,3.10
2018-11-20T02:05:05.726Z,3.10
2018-11-20T02:07:42.015Z,3.10
2018-11-20T02:09:59.081Z,3.20
2018-11-20T02:15:01.133Z,3.10
2018-11-20T02:27:13.215Z,3.10
2018-11-20T02:36:41.933Z,3.10
2018-11-20T02:39:23.215Z,3.10
2018-11-20T02:41:58.149Z,2.90
2018-11-20T02:47:11.355Z,3.00
2018-11-20T02:49:46.279Z,3.00
2018-11-20T02:52:27.702Z,3.00
2018-11-20T02:55:09.076Z,3.00
2018-11-20T02:57:43.908Z,2.90
2018-11-20T03:00:19.020Z,2.90
2018-11-20T03:02:54.619Z,2.90
2018-11-20T03:07:47.426Z,2.90
2018-11-20T03:12:50.886Z,2.90
2018-11-20T03:15:25.916Z,2.90
2018-11-20T03:18:06.588Z,2.80
2018-11-20T03:20:42.050Z,2.90
2018-11-20T03:23:12.966Z,2.90
2018-11-20T03:25:47.744Z,3.00
2018-11-20T03:28:25.500Z,2.90
2018-11-20T03:31:00.556Z,2.90
2018-11-20T03:36:19.050Z,2.90
2018-11-20T03:38:54.015Z,3.00
2018-11-20T03:41:29.294Z,3.10
2018-11-20T03:44:05.893Z,3.00
2018-11-20T03:46:44.464Z,3.00
2018-11-20T03:49:22.256Z,3.10
2018-11-20T03:54:36.021Z,3.10
2018-11-20T03:57:16.727Z,3.20
2018-11-20T04:04:33.491Z,3.10
2018-11-20T04:09:13.914Z,3.10
2018-11-20T04:11:37.463Z,3.20
2018-11-20T04:19:16.730Z,3.20
2018-11-20T04:21:51.803Z,3.20
2018-11-20T04:24:32.743Z,3.20
2018-11-20T04:27:07.797Z,3.20
2018-11-20T04:32:01.277Z,3.30
2018-11-20T04:34:38.367Z,3.30
2018-11-20T04:39:51.382Z,3.30
2018-11-20T04:42:18.735Z,3.30
2018-11-20T04:44:56.635Z,3.30
2018-11-20T04:49:53.159Z,3.20
2018-11-20T04:54:58.341Z,3.40
2018-11-20T05:04:32.805Z,3.30
2018-11-20T05:11:49.515Z,3.30
2018-11-20T05:17:03.205Z,3.40
2018-11-20T05:22:20.291Z,3.30
2018-11-20T05:24:55.186Z,3.40
2018-11-20T05:29:53.261Z,3.40
2018-11-20T05:55:12.042Z,3.30
2018-11-20T06:00:04.631Z,3.40
2018-11-20T06:02:43.141Z,3.40
2018-11-20T06:05:20.924Z,3.40
2018-11-20T06:08:02.330Z,3.40
2018-11-20T06:10:37.249Z,3.40
2018-11-20T06:13:13.621Z,3.40
2018-11-20T06:15:49.083Z,3.40
2018-11-20T06:18:24.619Z,3.40
2018-11-20T06:20:49.562Z,3.40
2018-11-20T06:23:24.344Z,3.30
2018-11-20T06:28:24.117Z,3.40
2018-11-20T06:31:04.838Z,3.40
2018-11-20T06:33:39.473Z,3.40
2018-11-20T06:36:14.493Z,3.40
2018-11-20T06:43:43.735Z,3.40
2018-11-20T06:46:24.782Z,3.40
2018-11-20T06:49:06.302Z,3.40
2018-11-20T06:51:44.216Z,3.40
2018-11-20T06:54:18.665Z,3.30
2018-11-20T06:56:56.114Z,3.40
2018-11-20T06:59:33.966Z,3.40
2018-11-20T07:02:08.990Z,3.50
2018-11-20T07:04:43.933Z,3.40
2018-11-20T07:07:18.810Z,3.50
2018-11-20T07:09:53.965Z,3.40
2018-11-20T07:14:39.702Z,3.40
2018-11-20T07:31:22.695Z,3.60
2018-11-20T07:34:00.070Z,3.50
2018-11-20T07:36:41.250Z,3.50
2018-11-20T07:41:22.415Z,3.60
2018-11-20T07:43:57.404Z,3.50
2018-11-20T07:46:38.366Z,3.50
2018-11-20T07:49:14.811Z,3.50
2018-11-20T07:51:49.528Z,3.50
2018-11-20T07:54:24.720Z,3.50
2018-11-20T07:59:05.300Z,3.60
2018-11-20T08:01:40.077Z,3.50
2018-11-20T08:06:24.062Z,3.50
2018-11-20T08:08:55.735Z,3.50
2018-11-20T08:11:32.248Z,3.50
2018-11-20T08:16:33.242Z,3.50
2018-11-20T08:31:25.221Z,3.50
2018-11-20T08:43:31.435Z,3.60
2018-11-20T08:50:55.335Z,3.70
2018-11-20T08:53:11.241Z,3.70
2018-11-20T09:00:22.587Z,3.80
2018-11-20T09:07:29.116Z,3.70
2018-11-20T09:12:12.968Z,3.70
2018-11-20T09:24:44.328Z,3.80
2018-11-20T09:27:19.033Z,3.80
2018-11-20T09:29:53.889Z,3.80
2018-11-20T09:32:31.761Z,3.80
2018-11-20T09:35:09.381Z,3.90
2018-11-20T09:37:45.459Z,3.90
2018-11-20T09:42:45.299Z,3.90
2018-11-20T09:45:23.318Z,3.80
2018-11-20T09:50:37.022Z,3.90
2018-11-20T09:53:11.515Z,3.90
2018-11-20T09:55:49.260Z,4.10
2018-11-20T10:01:05.565Z,4.00
2018-11-20T10:03:46.305Z,3.90
2018-11-20T10:06:22.875Z,4.00
2018-11-20T10:08:58.352Z,4.10
2018-11-20T10:11:33.372Z,4.00
2018-11-20T10:14:08.935Z,4.10
2018-11-20T10:16:42.022Z,4.10
2018-11-20T10:19:17.161Z,4.10
2018-11-20T10:21:51.797Z,4.10
2018-11-20T10:24:27.183Z,4.10
2018-11-20T10:27:02.120Z,4.10
2018-11-20T10:29:31.463Z,4.20
2018-11-20T10:32:06.468Z,4.10
2018-11-20T10:34:37.741Z,4.10
2018-11-20T11:00:24.242Z,4.70
2018-11-20T11:02:58.929Z,4.60
2018-11-20T11:05:33.889Z,4.60
2018-11-20T11:08:09.065Z,4.60
2018-11-20T11:10:34.931Z,4.70
2018-11-20T11:13:10.830Z,4.70
2018-11-20T11:18:27.332Z,4.80
2018-11-20T11:21:01.958Z,4.80
2018-11-20T11:23:37.795Z,4.90
2018-11-20T11:26:18.238Z,4.90
2018-11-20T11:30:56.565Z,4.90
2018-11-20T11:33:15.231Z,5.00
2018-11-20T11:37:59.786Z,5.10
2018-11-20T11:59:55.126Z,5.00
2018-11-20T12:04:36.628Z,5.20
2018-11-20T12:11:36.868Z,5.10
2018-11-20T12:18:31.272Z,5.00
2018-11-20T12:23:18.060Z,5.00
2018-11-20T12:30:19.362Z,5.10
2018-11-20T12:33:00.577Z,5.00
2018-11-20T12:35:36.200Z,5.00
2018-11-20T12:37:51.629Z,5.10
2018-11-20T12:40:27.676Z,5.00
2018-11-20T12:45:20.836Z,5.50
2018-11-20T12:48:03.872Z,5.00
2018-11-20T12:50:37.194Z,5.00
2018-11-20T12:57:47.588Z,5.00
2018-11-20T13:00:22.086Z,4.90
2018-11-20T13:03:02.972Z,5.00
2018-11-20T13:05:40.730Z,4.90
2018-11-20T13:08:15.685Z,4.90
2018-11-20T13:10:50.098Z,4.90
2018-11-20T13:13:25.432Z,4.80
2018-11-20T13:18:17.860Z,4.80
2018-11-20T13:20:54.362Z,4.80
2018-11-20T13:23:29.367Z,4.80
2018-11-20T13:25:57.117Z,4.70
2018-11-20T13:28:31.872Z,4.70
2018-11-20T13:31:06.750Z,4.70
2018-11-20T13:33:33.959Z,4.70
2018-11-20T13:36:14.849Z,4.70
2018-11-20T13:38:52.045Z,4.70
2018-11-20T13:41:25.627Z,4.60
2018-11-20T13:44:03.632Z,4.60
2018-11-20T13:46:34.135Z,4.70
2018-11-20T13:49:09.171Z,4.70
2018-11-20T13:51:43.586Z,4.70
2018-11-20T13:54:15.716Z,4.60
2018-11-20T14:04:08.437Z,4.60
2018-11-20T14:06:45.829Z,4.60
2018-11-20T14:24:22.738Z,4.60
2018-11-20T14:26:57.890Z,4.50
2018-11-20T14:29:33.285Z,4.60
2018-11-20T14:32:07.974Z,4.50
2018-11-20T14:34:43.501Z,4.50
2018-11-20T14:37:19.109Z,4.60
2018-11-20T14:39:44.107Z,4.60
2018-11-20T14:42:22.403Z,4.50
2018-11-20T14:47:41.928Z,4.50
2018-11-20T14:53:02.311Z,4.60
2018-11-20T14:58:18.100Z,4.50
2018-11-20T15:03:31.641Z,4.50
2018-11-20T15:10:28.175Z,4.50
2018-11-20T15:15:08.681Z,4.40
2018-11-20T15:27:15.509Z,4.40
2018-11-20T15:37:17.948Z,4.30
2018-11-20T15:52:16.847Z,4.30
2018-11-20T16:07:13.924Z,4.40
2018-11-20T16:09:48.511Z,4.30
2018-11-20T16:12:26.457Z,4.40
2018-11-20T16:17:25.431Z,4.40
2018-11-20T16:19:53.431Z,4.40
2018-11-20T16:22:34.412Z,4.30
2018-11-20T16:25:09.646Z,4.30
2018-11-20T16:27:44.296Z,4.40
2018-11-20T16:30:25.059Z,4.40
2018-11-20T16:33:00.354Z,4.30
2018-11-20T16:35:35.453Z,4.30
2018-11-20T16:38:10.737Z,4.30
2018-11-20T16:40:42.934Z,4.40
2018-11-20T16:43:18.275Z,4.40
2018-11-20T16:45:53.400Z,4.40
2018-11-20T16:48:28.182Z,4.40
2018-11-20T16:51:06.854Z,4.30
2018-11-20T16:53:48.136Z,4.30
2018-11-20T16:56:30.599Z,4.40
2018-11-20T17:01:55.466Z,4.40
2018-11-20T17:07:17.274Z,4.30
2018-11-20T17:09:52.453Z,4.30
2018-11-20T17:12:11.002Z,4.30
2018-11-20T17:17:09.766Z,4.40
2018-11-20T17:22:05.635Z,4.40
2018-11-20T17:30:02.172Z,4.30
2018-11-20T17:35:27.912Z,4.40
2018-11-20T17:37:49.666Z,4.20
2018-11-20T17:40:20.986Z,4.10
2018-11-20T17:42:40.186Z,4.00
2018-11-20T17:45:19.280Z,4.00
2018-11-20T17:47:42.375Z,4.00
2018-11-20T17:50:04.186Z,4.00
2018-11-20T17:52:45.789Z,4.10
2018-11-20T17:55:07.600Z,4.10
2018-11-20T17:57:29.426Z,4.10
2018-11-20T17:59:52.513Z,4.10
2018-11-20T18:02:14.510Z,4.00
2018-11-20T18:04:26.402Z,4.00
2018-11-20T18:06:55.540Z,4.00
2018-11-20T18:09:30.532Z,4.00
2018-11-20T18:11:53.698Z,4.10
2018-11-20T18:14:15.311Z,4.30
2018-11-20T18:16:45.430Z,4.50
2018-11-20T18:19:26.821Z,4.50
2018-11-20T18:21:56.115Z,4.50
2018-11-20T18:24:07.885Z,4.50
2018-11-20T18:26:29.941Z,4.60
2018-11-20T18:28:51.962Z,4.50
2018-11-20T18:31:26.863Z,4.50
2018-11-20T18:33:56.035Z,4.60
2018-11-20T18:36:37.522Z,4.50
2018-11-20T18:38:59.207Z,4.50
2018-11-20T18:41:21.412Z,4.50
2018-11-20T18:43:47.437Z,4.50
2018-11-20T18:46:10.723Z,4.50
2018-11-20T18:48:42.473Z,4.50
2018-11-20T18:51:02.569Z,4.50
2018-11-20T18:53:29.854Z,4.50
2018-11-20T18:55:51.537Z,4.50
2018-11-20T18:58:21.559Z,4.50
2018-11-20T19:01:00.094Z,4.60
2018-11-20T19:03:23.248Z,4.50
2018-11-20T19:06:04.619Z,4.60
2018-11-20T19:08:31.154Z,4.50
2018-11-20T19:10:52.976Z,4.50
2018-11-20T19:13:18.890Z,4.50
2018-11-20T19:15:51.367Z,4.50
2018-11-20T19:18:17.402Z,4.50
2018-11-20T19:20:39.164Z,4.50
2018-11-20T19:23:09.026Z,4.50
2018-11-20T19:25:41.307Z,4.50
2018-11-20T19:28:10.494Z,4.50
2018-11-20T19:30:32.087Z,4.50
2018-11-20T19:32:55.068Z,4.50
2018-11-20T19:35:18.093Z,4.50
2018-11-20T19:37:40.665Z,4.50
2018-11-20T19:40:16.434Z,4.50
2018-11-20T19:42:33.846Z,4.50
2018-11-20T19:44:59.972Z,4.50
2018-11-20T19:47:37.966Z,4.50
2018-11-20T19:50:04.301Z,4.40
2018-11-20T19:52:42.504Z,4.50
2018-11-20T19:55:05.048Z,4.50
2018-11-20T19:57:27.085Z,4.50
2018-11-20T19:59:46.545Z,4.50
2018-11-20T20:02:08.787Z,4.50
2018-11-20T20:04:30.821Z,4.40
2018-11-20T20:06:54.279Z,4.40
2018-11-20T20:09:28.384Z,4.40
2018-11-20T20:11:54.137Z,4.40
2018-11-20T20:14:16.890Z,4.40
2018-11-20T20:16:39.400Z,4.30
2018-11-20T20:19:18.121Z,4.30
2018-11-20T20:21:53.462Z,4.20
2018-11-20T20:24:18.666Z,4.10
2018-11-20T20:26:50.730Z,4.10
2018-11-20T20:29:23.411Z,4.20
2018-11-20T20:31:55.679Z,4.20
2018-11-20T20:34:14.033Z,4.20
2018-11-20T20:36:43.147Z,4.20
2018-11-20T20:38:57.878Z,4.30
2018-11-20T20:41:21.641Z,4.30
2018-11-20T20:44:03.141Z,4.30
2018-11-20T20:46:21.284Z,4.30
2018-11-20T20:48:43.410Z,4.30
2018-11-20T20:51:03.083Z,4.30
2018-11-20T20:53:29.274Z,4.30
2018-11-20T20:56:10.761Z,4.30
2018-11-20T20:58:46.565Z,4.30
2018-11-20T21:01:21.690Z,4.30
2018-11-20T21:03:41.773Z,4.20
2018-11-20T21:06:08.101Z,4.20
2018-11-20T21:08:33.871Z,4.20
2018-11-20T21:10:55.537Z,4.10
2018-11-20T21:13:24.074Z,4.00
2018-11-20T21:15:56.805Z,3.90
2018-11-20T21:18:18.729Z,3.70
2018-11-20T21:20:40.458Z,3.70
2018-11-20T21:23:06.374Z,3.60
2018-11-20T21:25:41.340Z,3.60
2018-11-20T21:28:14.091Z,3.60
2018-11-20T21:30:43.461Z,3.50
2018-11-20T21:33:04.755Z,3.50
2018-11-20T21:35:30.730Z,3.40
2018-11-20T21:37:56.121Z,3.40
2018-11-20T21:40:20.319Z,3.30
2018-11-20T21:42:46.342Z,3.30
2018-11-20T21:45:15.578Z,3.30
2018-11-20T21:47:53.443Z,3.30
2018-11-20T21:50:15.573Z,3.20
2018-11-20T21:52:37.605Z,3.20
2018-11-20T21:54:57.482Z,3.20
2018-11-20T21:57:19.100Z,3.20
2018-11-20T21:59:47.176Z,3.20
2018-11-20T22:02:10.433Z,3.20
2018-11-20T22:04:36.356Z,3.10
2018-11-20T22:07:08.496Z,3.10
2018-11-20T22:09:37.922Z,3.20
2018-11-20T22:12:01.079Z,3.20
2018-11-20T22:14:22.704Z,3.20
2018-11-20T22:17:03.775Z,3.20
2018-11-20T22:19:25.605Z,3.20
2018-11-20T22:21:55.521Z,3.10
2018-11-20T22:24:37.064Z,3.10
2018-11-20T22:27:18.593Z,3.10
2018-11-20T22:29:56.699Z,3.20
2018-11-20T22:32:18.521Z,3.20
2018-11-20T22:34:53.756Z,3.30
2018-11-20T22:37:18.353Z,3.30
2018-11-20T22:39:41.613Z,3.30
2018-11-20T22:42:03.235Z,3.30
2018-11-20T22:44:17.162Z,3.30
2018-11-20T22:46:49.332Z,3.40
2018-11-20T22:49:15.877Z,3.40
2018-11-20T22:51:38.837Z,3.40
2018-11-20T22:54:01.860Z,3.40
2018-11-20T22:56:28.097Z,3.50
2018-11-20T22:58:51.067Z,3.50
2018-11-20T23:01:13.064Z,3.50
2018-11-20T23:03:24.751Z,3.60
2018-11-20T23:05:52.439Z,3.60
2018-11-20T23:07:57.286Z,3.60
2018-11-20T23:10:01.532Z,3.60
2018-11-20T23:12:05.550Z,3.70
2018-11-20T23:14:09.744Z,3.70
2018-11-20T23:16:13.706Z,3.70
2018-11-20T23:18:17.659Z,3.70
2018-11-20T23:20:21.661Z,3.70
2018-11-20T23:22:25.637Z,3.70
2018-11-20T23:24:29.776Z,3.70
2018-11-20T23:26:33.990Z,3.70
2018-11-20T23:28:38.014Z,3.80
2018-11-20T23:30:41.999Z,3.80
2018-11-20T23:32:46.141Z,3.80
2018-11-20T23:34:50.148Z,3.80
2018-11-20T23:36:54.123Z,3.80
2018-11-20T23:38:58.157Z,3.80
2018-11-20T23:41:02.067Z,3.80
2018-11-20T23:43:06.082Z,3.80
2018-11-20T23:45:12.229Z,3.80
2018-11-20T23:47:16.399Z,3.90
2018-11-20T23:49:20.588Z,3.90
2018-11-20T23:51:24.802Z,3.90
2018-11-20T23:53:28.882Z,3.90
2018-11-20T23:55:32.849Z,3.90
2018-11-20T23:57:36.856Z,3.90
2018-11-20T23:59:40.908Z,3.90
